Time;durP1;ratioP1;P1;durP2;ratioP2;P2;SDS_P1;SDS_P2;PMS_P1;PMS_P2;Temp;Humidity;BMP_temperature;BMP_pressure;BME280_temperature;BME280_humidity;BME280_pressure;Samples;Min_cycle;Max_cycle;Signal;HPM_P1;HPM_P2
2021/12/27 00:00:53;;;;;;;5.60;4.67;;;1.60;99.90;;;;;;5070627;28;20482;-54
2021/12/27 00:03:20;;;;;;;3.80;3.50;;;1.70;99.90;;;;;;5070403;28;20528;-52
2021/12/27 00:05:47;;;;;;;3.53;3.00;;;1.80;99.90;;;;;;5072852;28;20611;-53
2021/12/27 00:08:14;;;;;;;3.10;2.77;;;1.90;99.90;;;;;;5069820;28;20528;-53
2021/12/27 00:10:41;;;;;;;6.50;5.07;;;1.90;99.90;;;;;;5070558;28;20477;-51
2021/12/27 00:13:09;;;;;;;6.93;5.00;;;1.80;99.90;;;;;;5068014;28;20532;-52
2021/12/27 00:15:36;;;;;;;5.87;4.40;;;1.70;99.90;;;;;;5070112;28;21069;-51
2021/12/27 00:18:04;;;;;;;6.83;4.73;;;1.70;99.90;;;;;;5071031;28;20548;-53
2021/12/27 00:20:32;;;;;;;4.67;4.20;;;1.80;99.90;;;;;;5070212;28;20467;-52
2021/12/27 00:22:59;;;;;;;5.50;4.20;;;1.80;99.90;;;;;;5069882;28;20455;-52
2021/12/27 00:25:26;;;;;;;4.53;3.60;;;1.80;99.90;;;;;;5069652;28;20585;-53
2021/12/27 00:27:53;;;;;;;3.53;3.23;;;1.70;99.90;;;;;;5068860;28;21012;-52
2021/12/27 00:30:22;;;;;;;5.60;3.20;;;1.80;99.90;;;;;;5070725;28;20523;-53
2021/12/27 00:32:50;;;;;;;5.63;4.00;;;1.90;99.90;;;;;;5071852;28;20535;-52
2021/12/27 00:35:19;;;;;;;7.27;5.03;;;1.90;99.90;;;;;;5068201;28;20543;-52
2021/12/27 00:37:47;;;;;;;7.10;4.53;;;1.90;99.90;;;;;;5071386;28;20487;-52
2021/12/27 00:40:14;;;;;;;5.30;4.13;;;1.90;99.90;;;;;;5072718;28;20508;-51
2021/12/27 00:42:42;;;;;;;4.93;4.17;;;1.90;99.90;;;;;;5070355;28;20464;-52
2021/12/27 00:45:10;;;;;;;4.83;3.30;;;1.90;99.90;;;;;;5071442;28;20569;-50
2021/12/27 00:47:39;;;;;;;4.20;3.30;;;2.00;99.90;;;;;;5071532;28;20800;-50
2021/12/27 00:50:07;;;;;;;3.80;3.50;;;2.00;99.90;;;;;;5069044;28;20476;-53
2021/12/27 00:52:35;;;;;;;4.20;3.23;;;2.00;99.90;;;;;;5069753;28;20479;-52
2021/12/27 00:55:04;;;;;;;4.27;3.87;;;1.90;99.90;;;;;;5071073;28;20880;-51
2021/12/27 00:57:31;;;;;;;2.90;2.43;;;1.90;99.90;;;;;;5077467;28;20979;-50
2021/12/27 00:59:58;;;;;;;4.33;2.10;;;1.90;99.90;;;;;;5073084;28;20538;-52
2021/12/27 01:02:26;;;;;;;2.57;2.10;;;1.80;99.90;;;;;;5070793;28;20492;-50
2021/12/27 01:04:54;;;;;;;2.47;1.90;;;1.70;99.90;;;;;;5068467;28;20563;-51
2021/12/27 01:07:21;;;;;;;9.00;3.40;;;1.70;99.90;;;;;;5069262;28;20524;-52
2021/12/27 01:10:02;;;;;;;6.07;5.27;;;1.70;99.90;;;;;;5073684;28;20528;-50
2021/12/27 01:12:34;;;;;;;6.93;4.60;;;1.80;99.90;;;;;;5068299;28;20459;-51
2021/12/27 01:15:22;;;;;;;8.17;4.10;;;1.80;99.90;;;;;;5066798;28;20468;-51
2021/12/27 01:17:51;;;;;;;3.30;2.90;;;1.70;99.90;;;;;;5069284;28;20912;-51
2021/12/27 01:20:22;;;;;;;2.30;2.10;;;1.50;99.90;;;;;;5068582;28;21020;-51
2021/12/27 01:22:49;;;;;;;1.83;1.73;;;1.40;99.90;;;;;;5070180;28;20536;-50
2021/12/27 01:25:16;;;;;;;3.73;1.80;;;1.40;99.90;;;;;;5069962;28;20577;-52
2021/12/27 01:27:44;;;;;;;2.70;1.87;;;1.40;99.90;;;;;;5069824;28;20490;-50
2021/12/27 01:30:15;;;;;;;3.20;2.10;;;1.40;99.90;;;;;;5069399;28;20527;-50
2021/12/27 01:32:47;;;;;;;2.90;2.40;;;1.40;99.90;;;;;;5068833;28;20459;-58
2021/12/27 01:35:16;;;;;;;2.33;2.03;;;1.30;99.90;;;;;;5068079;28;20468;-52
2021/12/27 01:37:45;;;;;;;1.70;1.60;;;1.20;99.90;;;;;;5070416;28;20475;-50
2021/12/27 01:40:15;;;;;;;1.50;1.40;;;1.20;99.90;;;;;;5074632;28;20955;-51
2021/12/27 01:43:00;;;;;;;1.20;1.10;;;0.80;99.90;;;;;;5069568;28;20460;-50
2021/12/27 01:45:28;;;;;;;2.43;1.87;;;0.90;99.90;;;;;;5074867;28;20517;-51
2021/12/27 01:47:55;;;;;;;2.63;2.07;;;0.90;99.90;;;;;;5070530;28;20533;-50
2021/12/27 01:50:22;;;;;;;3.43;2.83;;;1.00;99.90;;;;;;5068125;28;20468;-50
2021/12/27 01:52:50;;;;;;;7.40;4.67;;;1.00;99.90;;;;;;5069749;28;20974;-50
2021/12/27 01:55:17;;;;;;;5.50;4.03;;;1.10;99.90;;;;;;5070862;28;21579;-51
2021/12/27 01:57:44;;;;;;;5.27;4.77;;;1.10;99.90;;;;;;5068869;28;20524;-51
2021/12/27 02:00:13;;;;;;;4.47;4.07;;;1.10;99.90;;;;;;5070263;28;20536;-51
2021/12/27 02:02:40;;;;;;;3.77;3.47;;;1.00;99.90;;;;;;5070065;28;20534;-52
2021/12/27 02:05:07;;;;;;;3.73;2.63;;;0.60;99.90;;;;;;5068695;28;20565;-51
2021/12/27 02:07:34;;;;;;;4.27;2.80;;;0.50;99.90;;;;;;5069857;28;20534;-52
2021/12/27 02:10:05;;;;;;;2.60;2.40;;;0.40;99.90;;;;;;5072949;28;20878;-50
2021/12/27 02:12:32;;;;;;;3.07;2.77;;;0.60;99.90;;;;;;5070157;28;20477;-51
2021/12/27 02:15:02;;;;;;;3.00;2.67;;;0.70;99.90;;;;;;5070960;28;20927;-51
2021/12/27 02:17:29;;;;;;;2.57;2.37;;;0.80;99.90;;;;;;5069222;28;20455;-51
2021/12/27 02:19:58;;;;;;;3.97;2.40;;;0.90;99.90;;;;;;5064659;28;20467;-51
2021/12/27 02:22:25;;;;;;;2.97;1.67;;;1.00;99.90;;;;;;5068317;28;20476;-51
2021/12/27 02:24:52;;;;;;;1.40;1.30;;;1.10;99.90;;;;;;5069293;28;20572;-51
2021/12/27 02:27:19;;;;;;;1.47;1.27;;;1.10;99.90;;;;;;5073645;28;20472;-51
2021/12/27 02:29:45;;;;;;;2.00;1.40;;;1.20;99.90;;;;;;5074329;28;21070;-51
2021/12/27 02:32:13;;;;;;;1.97;1.73;;;1.20;99.90;;;;;;5076163;28;20527;-52
2021/12/27 02:34:39;;;;;;;1.90;1.70;;;1.20;99.90;;;;;;5073757;28;20841;-53
2021/12/27 02:37:08;;;;;;;2.50;1.97;;;1.30;99.90;;;;;;5071732;28;20858;-51
2021/12/27 02:39:35;;;;;;;5.40;2.40;;;1.20;99.90;;;;;;5072587;28;20995;-50
2021/12/27 02:42:02;;;;;;;3.30;2.70;;;1.20;99.90;;;;;;5074203;28;20451;-51
2021/12/27 02:44:29;;;;;;;1.53;1.43;;;1.30;99.90;;;;;;5078184;28;20553;-52
2021/12/27 02:46:55;;;;;;;3.40;2.33;;;1.20;99.90;;;;;;5071215;28;20568;-52
2021/12/27 02:49:22;;;;;;;1.93;1.83;;;1.20;99.90;;;;;;5070659;28;20776;-50
2021/12/27 02:51:49;;;;;;;3.00;2.40;;;1.10;99.90;;;;;;5078739;28;20536;-51
2021/12/27 02:54:18;;;;;;;3.40;2.80;;;0.80;99.90;;;;;;5074872;28;20442;-52
2021/12/27 02:56:45;;;;;;;2.73;2.43;;;0.60;99.90;;;;;;5075364;28;20542;-51
2021/12/27 02:59:12;;;;;;;2.93;2.30;;;0.50;99.90;;;;;;5082536;28;20492;-51
2021/12/27 03:01:39;;;;;;;3.80;2.70;;;0.50;99.90;;;;;;5071584;28;20519;-52
2021/12/27 03:04:05;;;;;;;2.40;2.20;;;0.60;99.90;;;;;;5071327;28;21018;-53
2021/12/27 03:06:32;;;;;;;2.50;1.80;;;0.80;99.90;;;;;;5084109;28;20599;-51
2021/12/27 03:08:59;;;;;;;1.83;1.73;;;0.80;99.90;;;;;;5072556;28;20534;-49
2021/12/27 03:11:28;;;;;;;3.30;1.70;;;0.90;99.90;;;;;;5073157;28;20491;-52
2021/12/27 03:13:55;;;;;;;3.60;2.10;;;0.90;99.90;;;;;;5073132;28;20480;-52
2021/12/27 03:16:24;;;;;;;2.00;1.80;;;0.90;99.90;;;;;;5071067;28;20477;-51
2021/12/27 03:18:52;;;;;;;1.73;1.63;;;0.90;99.90;;;;;;5070615;28;20451;-50
2021/12/27 03:21:20;;;;;;;1.47;1.37;;;0.90;99.90;;;;;;5071998;28;20524;-51
2021/12/27 03:23:48;;;;;;;2.50;2.23;;;0.90;99.90;;;;;;5071720;28;20528;-52
2021/12/27 03:26:16;;;;;;;2.70;2.57;;;0.90;99.90;;;;;;5068654;28;20566;-54
2021/12/27 03:28:44;;;;;;;1.40;1.23;;;1.00;99.90;;;;;;5061557;28;20546;-50
2021/12/27 03:31:12;;;;;;;2.00;1.30;;;0.90;99.90;;;;;;5071588;28;20557;-51
2021/12/27 03:33:39;;;;;;;1.33;1.20;;;0.80;99.90;;;;;;5072334;28;20481;-51
2021/12/27 03:36:07;;;;;;;1.17;1.07;;;0.80;99.90;;;;;;5071177;28;20494;-53
2021/12/27 03:38:38;;;;;;;1.63;1.37;;;0.70;99.90;;;;;;5074076;28;20540;-53
2021/12/27 03:41:07;;;;;;;1.30;1.20;;;0.80;99.90;;;;;;5076051;28;20488;-53
2021/12/27 03:43:34;;;;;;;1.73;1.40;;;0.80;99.90;;;;;;5071055;28;20538;-51
2021/12/27 03:46:03;;;;;;;3.67;1.40;;;1.00;99.90;;;;;;5073029;28;20569;-52
2021/12/27 03:48:30;;;;;;;2.00;1.80;;;1.00;99.90;;;;;;5072874;28;20530;-54
2021/12/27 03:50:58;;;;;;;1.63;1.53;;;0.90;99.90;;;;;;5071562;28;20531;-51
2021/12/27 03:53:26;;;;;;;2.47;1.60;;;0.80;99.90;;;;;;5071033;28;20484;-53
2021/12/27 03:55:52;;;;;;;1.40;1.30;;;0.70;99.90;;;;;;5071860;28;20543;-51
2021/12/27 03:58:29;;;;;;;1.30;1.17;;;0.70;99.90;;;;;;5072657;28;20468;-50
2021/12/27 04:01:12;;;;;;;2.33;1.40;;;0.70;99.90;;;;;;5071152;28;20938;-50
2021/12/27 04:03:41;;;;;;;2.27;1.67;;;0.80;99.90;;;;;;5073190;28;20537;-53
2021/12/27 04:06:08;;;;;;;2.50;2.07;;;0.60;99.90;;;;;;5069747;28;20570;-51
2021/12/27 04:08:35;;;;;;;3.27;1.47;;;0.40;99.90;;;;;;5069140;28;20543;-51
2021/12/27 04:11:02;;;;;;;1.77;1.67;;;0.40;99.90;;;;;;5076428;28;20530;-51
2021/12/27 04:13:29;;;;;;;2.23;1.70;;;0.50;99.90;;;;;;5071434;28;20475;-51
2021/12/27 04:15:56;;;;;;;1.33;1.20;;;0.60;99.90;;;;;;5071174;28;20548;-52
2021/12/27 04:18:23;;;;;;;4.87;1.80;;;0.70;99.90;;;;;;5072519;28;20541;-53
2021/12/27 04:20:51;;;;;;;1.33;1.23;;;0.80;99.90;;;;;;5070114;28;20833;-51
2021/12/27 04:23:19;;;;;;;2.73;1.70;;;0.80;99.90;;;;;;5070442;28;20989;-52
2021/12/27 04:25:47;;;;;;;1.70;1.60;;;0.90;99.90;;;;;;5070150;28;20614;-51
2021/12/27 04:28:15;;;;;;;2.50;1.80;;;1.00;99.90;;;;;;5069815;28;20467;-52
2021/12/27 04:30:42;;;;;;;1.30;1.20;;;1.10;99.90;;;;;;5067738;28;20478;-52
2021/12/27 04:33:09;;;;;;;20.33;9.67;;;1.10;99.90;;;;;;5071723;28;20519;-52
2021/12/27 04:35:36;;;;;;;13.27;8.07;;;1.20;99.90;;;;;;5068869;28;20514;-51
2021/12/27 04:38:05;;;;;;;17.90;9.87;;;1.20;99.90;;;;;;5072020;28;20533;-51
2021/12/27 04:40:39;;;;;;;7.00;4.50;;;1.20;99.90;;;;;;5074238;28;20447;-52
2021/12/27 04:43:11;;;;;;;4.83;2.50;;;1.30;99.90;;;;;;5069068;28;20535;-52
2021/12/27 04:45:39;;;;;;;3.00;2.10;;;1.30;99.90;;;;;;5069734;28;20588;-52
2021/12/27 04:48:07;;;;;;;2.80;1.53;;;1.40;99.90;;;;;;5069343;28;20499;-53
2021/12/27 04:50:35;;;;;;;1.20;1.10;;;1.30;99.90;;;;;;5070344;28;20531;-53
2021/12/27 04:53:01;;;;;;;1.93;1.10;;;0.80;99.90;;;;;;5070565;28;20525;-51
2021/12/27 04:55:30;;;;;;;1.07;0.97;;;0.70;99.90;;;;;;5069396;28;20507;-52
2021/12/27 04:57:57;;;;;;;1.70;1.17;;;0.60;99.90;;;;;;5074968;28;20466;-50
2021/12/27 05:00:25;;;;;;;2.60;2.40;;;0.80;99.90;;;;;;5079269;28;20461;-51
2021/12/27 05:02:52;;;;;;;4.53;3.50;;;0.90;99.90;;;;;;5074350;28;20524;-51
2021/12/27 05:05:18;;;;;;;3.90;2.80;;;1.00;99.90;;;;;;5069757;28;20492;-52
2021/12/27 05:07:47;;;;;;;3.27;2.80;;;0.90;99.90;;;;;;5071422;28;20546;-50
2021/12/27 05:10:16;;;;;;;1.30;1.20;;;0.60;99.90;;;;;;5073370;28;20956;-51
2021/12/27 05:12:44;;;;;;;2.93;1.93;;;0.40;99.90;;;;;;5072481;28;20819;-51
2021/12/27 05:15:11;;;;;;;1.50;1.20;;;0.40;99.90;;;;;;5070838;28;20557;-51
2021/12/27 05:17:38;;;;;;;1.40;1.23;;;0.50;99.90;;;;;;5065241;28;20542;-50
2021/12/27 05:20:08;;;;;;;4.30;1.33;;;0.60;99.90;;;;;;5067425;28;20891;-51
2021/12/27 05:22:36;;;;;;;1.80;1.50;;;0.70;99.90;;;;;;5069320;28;20980;-51
2021/12/27 05:25:05;;;;;;;2.63;1.73;;;0.70;99.90;;;;;;5075497;28;20555;-50
2021/12/27 05:27:32;;;;;;;2.50;2.30;;;0.80;99.90;;;;;;5071294;28;20590;-49
2021/12/27 05:30:00;;;;;;;3.50;3.20;;;0.90;99.90;;;;;;5071553;28;20539;-51
2021/12/27 05:32:27;;;;;;;4.23;3.53;;;1.00;99.90;;;;;;5068642;28;20560;-51
2021/12/27 05:34:54;;;;;;;5.77;4.10;;;1.00;99.90;;;;;;5069560;28;20507;-49
2021/12/27 05:37:21;;;;;;;10.03;5.87;;;0.90;99.90;;;;;;5071147;28;20473;-52
2021/12/27 05:39:48;;;;;;;6.40;5.10;;;0.70;99.90;;;;;;5074337;28;20875;-51
2021/12/27 05:42:15;;;;;;;3.83;3.10;;;0.30;99.90;;;;;;5066827;28;20450;-52
2021/12/27 05:44:42;;;;;;;2.37;2.00;;;0.10;99.90;;;;;;5069780;28;20493;-50
2021/12/27 05:47:11;;;;;;;2.10;1.90;;;0.10;99.90;;;;;;5067557;28;21049;-54
2021/12/27 05:49:38;;;;;;;6.07;3.40;;;0.10;99.90;;;;;;5070508;28;21177;-52
2021/12/27 05:52:05;;;;;;;5.30;3.67;;;0.10;99.90;;;;;;5069792;28;20447;-51
2021/12/27 05:54:32;;;;;;;3.63;3.30;;;0.30;99.90;;;;;;5069920;28;20531;-50
2021/12/27 05:56:59;;;;;;;4.60;3.97;;;0.50;99.90;;;;;;5071290;28;20486;-50
2021/12/27 05:59:26;;;;;;;2.47;2.27;;;0.60;99.90;;;;;;5070113;28;20641;-51
2021/12/27 06:01:53;;;;;;;3.83;2.57;;;0.70;99.90;;;;;;5075042;28;20884;-50
2021/12/27 06:04:21;;;;;;;1.57;1.47;;;0.80;99.90;;;;;;5072712;28;20528;-50
2021/12/27 06:06:48;;;;;;;1.87;1.57;;;0.80;99.90;;;;;;5072009;28;20578;-50
2021/12/27 06:09:15;;;;;;;1.67;1.37;;;0.90;99.90;;;;;;5074759;28;20530;-51
2021/12/27 06:11:42;;;;;;;1.90;1.40;;;0.80;99.90;;;;;;5072455;28;20533;-50
2021/12/27 06:14:09;;;;;;;5.43;2.53;;;0.90;99.90;;;;;;5072279;28;20518;-51
2021/12/27 06:16:36;;;;;;;2.40;2.10;;;0.80;99.90;;;;;;5072672;28;21069;-52
2021/12/27 06:19:03;;;;;;;1.80;1.70;;;0.90;99.90;;;;;;5074451;28;20533;-52
2021/12/27 06:21:33;;;;;;;4.30;3.10;;;0.90;99.90;;;;;;5070232;28;20476;-50
2021/12/27 06:24:00;;;;;;;2.47;2.27;;;0.90;99.90;;;;;;5073745;28;20505;-52
2021/12/27 06:26:27;;;;;;;2.07;1.83;;;0.90;99.90;;;;;;5076588;28;20562;-51
2021/12/27 06:28:54;;;;;;;2.77;1.47;;;0.80;99.90;;;;;;5071830;28;20540;-51
2021/12/27 06:31:22;;;;;;;1.67;1.27;;;0.90;99.90;;;;;;5075277;28;20527;-51
2021/12/27 06:33:49;;;;;;;2.07;1.73;;;0.80;99.90;;;;;;5071455;28;20444;-51
2021/12/27 06:36:16;;;;;;;6.80;4.90;;;0.80;99.90;;;;;;5070103;28;20484;-51
2021/12/27 06:38:45;;;;;;;4.20;3.80;;;0.80;99.90;;;;;;5073145;28;20535;-51
2021/12/27 06:41:12;;;;;;;4.07;3.57;;;0.80;99.90;;;;;;5078067;28;20888;-50
2021/12/27 06:43:39;;;;;;;5.63;4.17;;;0.70;99.90;;;;;;5073329;28;20478;-50
2021/12/27 06:46:06;;;;;;;7.87;6.27;;;0.60;99.90;;;;;;5074080;28;20506;-53
2021/12/27 06:48:33;;;;;;;6.00;5.40;;;0.60;99.90;;;;;;5079412;28;20486;-50
2021/12/27 06:51:00;;;;;;;6.20;5.30;;;0.50;99.90;;;;;;5072771;28;20487;-51
2021/12/27 06:53:28;;;;;;;4.80;4.00;;;0.60;99.90;;;;;;5072637;28;20538;-51
2021/12/27 06:55:57;;;;;;;4.83;4.03;;;0.60;99.90;;;;;;5067332;28;20466;-52
2021/12/27 06:58:24;;;;;;;4.50;3.93;;;0.60;99.90;;;;;;5074181;28;21011;-52
2021/12/27 07:00:51;;;;;;;4.43;4.00;;;0.60;99.90;;;;;;5078133;28;20527;-52
2021/12/27 07:03:18;;;;;;;3.73;3.43;;;0.60;99.90;;;;;;5078098;28;20526;-51
2021/12/27 07:05:45;;;;;;;3.33;2.53;;;0.60;99.90;;;;;;5072386;28;20557;-51
2021/12/27 07:08:12;;;;;;;11.60;3.67;;;0.50;99.90;;;;;;5072755;28;20595;-52
2021/12/27 07:10:39;;;;;;;3.50;2.67;;;0.50;99.90;;;;;;5076649;28;20871;-51
2021/12/27 07:13:09;;;;;;;3.73;2.90;;;0.10;99.90;;;;;;5072435;28;20533;-50
2021/12/27 07:15:41;;;;;;;6.30;4.87;;;-0.20;99.90;;;;;;5074542;28;20469;-50
2021/12/27 07:18:08;;;;;;;7.33;4.33;;;-0.10;99.90;;;;;;5075360;28;20430;-50
2021/12/27 07:20:35;;;;;;;4.33;3.93;;;0.00;99.90;;;;;;5072772;28;20539;-50
2021/12/27 07:23:03;;;;;;;7.10;4.00;;;0.10;99.90;;;;;;5073276;28;20986;-49
2021/12/27 07:25:30;;;;;;;6.43;5.40;;;0.30;99.90;;;;;;5069840;28;20554;-51
2021/12/27 07:27:57;;;;;;;5.40;3.97;;;0.40;99.90;;;;;;5069583;28;20561;-50
2021/12/27 07:30:25;;;;;;;5.50;3.47;;;0.40;99.90;;;;;;5071708;28;20545;-53
2021/12/27 07:32:52;;;;;;;3.60;2.60;;;0.50;99.90;;;;;;5070477;28;20477;-50
2021/12/27 07:35:19;;;;;;;3.00;2.50;;;0.50;99.90;;;;;;5072697;28;20554;-50
2021/12/27 07:37:46;;;;;;;2.80;2.27;;;0.60;99.90;;;;;;5071655;28;20483;-50
2021/12/27 07:40:13;;;;;;;2.03;1.83;;;0.60;99.90;;;;;;5071888;28;20531;-50
2021/12/27 07:42:40;;;;;;;1.50;1.40;;;0.50;99.90;;;;;;5071721;28;20859;-49
2021/12/27 07:45:08;;;;;;;2.07;1.30;;;0.40;99.90;;;;;;5071619;28;20495;-50
2021/12/27 07:47:36;;;;;;;4.43;1.83;;;0.40;99.90;;;;;;5071194;28;20567;-51
2021/12/27 07:50:05;;;;;;;2.07;1.87;;;0.40;99.90;;;;;;5064684;28;20545;-50
2021/12/27 07:52:32;;;;;;;2.60;2.17;;;0.40;99.90;;;;;;5071397;28;20472;-47
2021/12/27 07:54:59;;;;;;;2.70;1.70;;;0.30;99.90;;;;;;5071818;28;20474;-49
2021/12/27 07:57:26;;;;;;;2.40;2.20;;;0.30;99.90;;;;;;5071183;28;20490;-51
2021/12/27 07:59:53;;;;;;;2.40;1.87;;;0.30;99.90;;;;;;5070679;28;20475;-50
2021/12/27 08:02:20;;;;;;;2.50;2.30;;;0.30;99.90;;;;;;5074105;28;20476;-51
2021/12/27 08:04:48;;;;;;;3.03;1.87;;;0.20;99.90;;;;;;5073938;28;20880;-50
2021/12/27 08:07:15;;;;;;;2.37;2.20;;;0.10;99.90;;;;;;5070772;28;20508;-49
2021/12/27 08:09:42;;;;;;;2.37;1.90;;;0.20;99.90;;;;;;5072151;28;20534;-50
2021/12/27 08:12:12;;;;;;;4.00;2.30;;;0.20;99.90;;;;;;5070958;28;20894;-49
2021/12/27 08:14:39;;;;;;;1.90;1.50;;;0.20;99.90;;;;;;5070706;28;20855;-50
2021/12/27 08:17:06;;;;;;;1.20;1.10;;;0.20;99.90;;;;;;5068652;28;20531;-49
2021/12/27 08:19:34;;;;;;;1.00;0.90;;;0.00;99.90;;;;;;5074550;28;20975;-49
2021/12/27 08:22:03;;;;;;;2.80;1.30;;;0.00;99.90;;;;;;5069372;28;20472;-50
2021/12/27 08:24:30;;;;;;;4.80;4.23;;;0.10;99.90;;;;;;5071731;28;20993;-50
2021/12/27 08:26:57;;;;;;;2.80;2.60;;;0.20;99.90;;;;;;5070495;28;21045;-47
2021/12/27 08:29:24;;;;;;;5.90;3.87;;;-0.30;99.90;;;;;;5074463;28;20489;-51
2021/12/27 08:31:51;;;;;;;6.60;3.90;;;-0.40;99.90;;;;;;5071115;28;20496;-50
2021/12/27 08:34:17;;;;;;;2.43;2.23;;;-0.40;99.90;;;;;;5077178;28;20541;-49
2021/12/27 08:36:44;;;;;;;7.10;3.93;;;-0.20;99.90;;;;;;5070148;28;20524;-50
2021/12/27 08:39:13;;;;;;;8.00;5.60;;;-0.10;99.90;;;;;;5071289;28;20986;-50
2021/12/27 08:41:40;;;;;;;11.40;9.10;;;0.00;99.90;;;;;;5070541;28;20516;-51
2021/12/27 08:44:07;;;;;;;6.97;5.03;;;-0.10;99.90;;;;;;5073390;28;20514;-49
2021/12/27 08:46:35;;;;;;;8.93;6.53;;;-0.20;99.90;;;;;;5072452;28;20556;-50
2021/12/27 08:49:03;;;;;;;5.87;5.33;;;-0.10;99.90;;;;;;5070864;28;20863;-49
2021/12/27 08:51:30;;;;;;;8.60;7.30;;;0.00;99.90;;;;;;5069286;28;20445;-50
2021/12/27 08:53:57;;;;;;;10.40;8.43;;;0.00;99.90;;;;;;5070448;28;20534;-51
2021/12/27 08:56:25;;;;;;;8.57;7.57;;;0.00;99.90;;;;;;5069940;28;20510;-50
2021/12/27 08:58:52;;;;;;;7.87;6.07;;;-0.20;99.90;;;;;;5072228;28;20526;-48
2021/12/27 09:01:19;;;;;;;7.43;6.63;;;-0.20;99.90;;;;;;5070526;28;20531;-50
2021/12/27 09:03:46;;;;;;;8.30;6.40;;;0.00;99.90;;;;;;5070702;28;20474;-51
2021/12/27 09:06:14;;;;;;;10.43;7.50;;;0.10;99.90;;;;;;5065351;28;20554;-48
2021/12/27 09:08:42;;;;;;;7.77;6.33;;;0.20;99.90;;;;;;5070384;28;20492;-49
2021/12/27 09:11:09;;;;;;;15.93;11.27;;;0.20;99.90;;;;;;5069397;28;20846;-49
2021/12/27 09:13:37;;;;;;;13.47;11.73;;;0.30;99.90;;;;;;5070346;28;21133;-50
2021/12/27 09:16:07;;;;;;;13.63;11.93;;;0.20;99.90;;;;;;5073383;28;20455;-52
2021/12/27 09:18:35;;;;;;;11.47;9.00;;;0.10;99.90;;;;;;5068657;28;20526;-50
2021/12/27 09:21:02;;;;;;;7.90;6.27;;;0.00;99.90;;;;;;5065362;28;20440;-49
2021/12/27 09:23:29;;;;;;;6.70;5.33;;;0.00;99.90;;;;;;5066822;28;20493;-49
2021/12/27 09:25:57;;;;;;;5.37;4.80;;;-0.20;99.90;;;;;;5068189;28;21037;-49
2021/12/27 09:28:24;;;;;;;6.63;5.63;;;-0.40;99.90;;;;;;5068708;28;20574;-49
2021/12/27 09:30:52;;;;;;;5.63;4.23;;;-0.40;99.90;;;;;;5070226;28;20490;-49
2021/12/27 09:33:19;;;;;;;3.80;2.93;;;-0.60;99.90;;;;;;5071567;28;20520;-49
2021/12/27 09:35:46;;;;;;;3.00;2.60;;;-0.60;99.90;;;;;;5070379;28;20506;-49
2021/12/27 09:38:13;;;;;;;5.43;4.93;;;-0.40;99.90;;;;;;5069570;28;20449;-48
2021/12/27 09:40:41;;;;;;;7.13;6.40;;;-0.30;99.90;;;;;;5075114;28;21057;-49
2021/12/27 09:43:09;;;;;;;7.07;6.00;;;-0.20;99.90;;;;;;5069746;28;20529;-51
2021/12/27 09:45:36;;;;;;;7.20;5.97;;;-0.30;99.90;;;;;;5069024;28;21039;-51
2021/12/27 09:48:05;;;;;;;9.77;7.47;;;-0.50;99.90;;;;;;5072447;28;20559;-50
2021/12/27 09:50:36;;;;;;;11.87;9.10;;;-0.30;99.90;;;;;;5073828;28;20531;-50
2021/12/27 09:53:03;;;;;;;11.87;8.10;;;-0.30;99.90;;;;;;5068192;28;20468;-50
2021/12/27 09:55:30;;;;;;;5.67;5.13;;;-0.20;99.90;;;;;;5070508;28;20497;-50
2021/12/27 09:57:59;;;;;;;6.50;5.00;;;-0.10;99.90;;;;;;5069740;28;20520;-50
2021/12/27 10:00:27;;;;;;;7.70;5.60;;;0.10;99.90;;;;;;5068980;28;20443;-50
2021/12/27 10:02:55;;;;;;;7.63;5.43;;;0.20;99.90;;;;;;5070183;28;20537;-50
2021/12/27 10:05:26;;;;;;;8.67;6.30;;;0.30;99.90;;;;;;5069513;28;20504;-51
2021/12/27 10:07:53;;;;;;;5.50;4.90;;;0.40;99.90;;;;;;5069077;28;20570;-49
2021/12/27 10:10:21;;;;;;;4.97;4.47;;;0.50;99.90;;;;;;5069162;28;20526;-51
2021/12/27 10:12:48;;;;;;;5.60;4.70;;;0.60;99.90;;;;;;5069352;28;21115;-50
2021/12/27 10:15:18;;;;;;;4.90;3.87;;;0.50;99.90;;;;;;5068906;28;20548;-50
2021/12/27 10:17:46;;;;;;;3.30;3.00;;;0.70;99.90;;;;;;5069981;28;20532;-51
2021/12/27 10:20:15;;;;;;;2.50;2.23;;;0.90;99.90;;;;;;5070947;28;20883;-50
2021/12/27 10:22:47;;;;;;;6.13;4.07;;;1.10;99.90;;;;;;5068162;28;20535;-50
2021/12/27 10:25:16;;;;;;;12.13;10.70;;;1.30;99.90;;;;;;5069014;28;20927;-50
2021/12/27 10:27:43;;;;;;;14.30;12.83;;;1.40;99.90;;;;;;5069681;28;20562;-51
2021/12/27 10:30:12;;;;;;;11.10;8.80;;;1.40;99.90;;;;;;5068641;28;20468;-49
2021/12/27 10:32:39;;;;;;;5.50;4.83;;;1.10;99.90;;;;;;5069919;28;20478;-49
2021/12/27 10:35:07;;;;;;;6.27;4.27;;;0.60;99.90;;;;;;5076360;28;20901;-50
2021/12/27 10:37:35;;;;;;;11.27;8.17;;;0.60;99.90;;;;;;5069201;28;20468;-50
2021/12/27 10:40:05;;;;;;;28.77;22.70;;;0.90;99.90;;;;;;5068261;28;20443;-50
2021/12/27 10:42:36;;;;;;;27.77;19.07;;;1.10;99.90;;;;;;5069391;28;20550;-50
2021/12/27 10:45:05;;;;;;;10.73;8.50;;;1.30;99.90;;;;;;5069367;28;20551;-50
2021/12/27 10:47:38;;;;;;;5.50;5.00;;;1.60;99.90;;;;;;5074236;28;20504;-51
2021/12/27 10:50:09;;;;;;;7.13;6.43;;;1.80;99.90;;;;;;5081331;28;20519;-50
2021/12/27 10:52:55;;;;;;;23.60;15.50;;;2.00;99.90;;;;;;5069835;28;20883;-50
2021/12/27 10:55:25;;;;;;;104.63;83.23;;;1.90;99.90;;;;;;5074664;28;20521;-51
2021/12/27 10:57:53;;;;;;;52.63;47.17;;;1.60;99.90;;;;;;5070361;28;20897;-47
2021/12/27 11:00:27;;;;;;;38.70;34.97;;;1.60;99.90;;;;;;5065684;28;20519;-50
2021/12/27 11:02:55;;;;;;;19.63;17.90;;;1.60;99.90;;;;;;5072128;28;20936;-50
2021/12/27 11:05:26;;;;;;;7.40;6.17;;;1.90;99.90;;;;;;5073879;28;20507;-50
2021/12/27 11:07:54;;;;;;;5.27;4.80;;;2.20;99.90;;;;;;5071780;28;20563;-50
2021/12/27 11:10:23;;;;;;;14.43;12.93;;;2.40;99.90;;;;;;5072581;28;20535;-50
2021/12/27 11:12:50;;;;;;;4.40;4.00;;;2.60;99.90;;;;;;5072904;28;20535;-53
2021/12/27 11:15:18;;;;;;;3.97;3.03;;;2.80;99.90;;;;;;5071140;28;20484;-50
2021/12/27 11:17:46;;;;;;;4.77;4.33;;;3.00;99.90;;;;;;5072541;28;20996;-50
2021/12/27 11:20:14;;;;;;;7.33;6.00;;;3.10;99.90;;;;;;5072595;28;20531;-50
2021/12/27 11:22:43;;;;;;;7.03;6.33;;;3.10;99.90;;;;;;5071538;28;21004;-50
2021/12/27 11:25:27;;;;;;;10.37;9.37;;;3.20;99.90;;;;;;5071873;28;20481;-50
2021/12/27 11:27:55;;;;;;;8.00;7.37;;;3.30;99.90;;;;;;5065452;28;20477;-50
2021/12/27 11:30:24;;;;;;;7.57;6.80;;;3.30;99.90;;;;;;5070992;28;20470;-50
2021/12/27 11:33:08;;;;;;;17.10;13.20;;;3.10;99.90;;;;;;5072293;28;20948;-53
2021/12/27 11:35:38;;;;;;;10.00;6.93;;;3.60;99.90;;;;;;5071361;28;20460;-51
2021/12/27 11:38:06;;;;;;;8.30;7.50;;;3.80;99.90;;;;;;5071935;28;20518;-50
2021/12/27 11:40:46;;;;;;;8.13;7.20;;;3.90;99.90;;;;;;5072396;28;20568;-53
2021/12/27 11:43:13;;;;;;;7.10;6.30;;;3.90;99.90;;;;;;5071968;28;20956;-52
2021/12/27 11:45:44;;;;;;;8.03;7.23;;;3.90;99.90;;;;;;5071434;28;20549;-50
2021/12/27 11:48:13;;;;;;;6.30;5.40;;;3.90;99.90;;;;;;5073031;28;20555;-50
2021/12/27 11:51:03;;;;;;;6.30;5.70;;;3.80;99.90;;;;;;5073893;28;20546;-52
2021/12/27 11:53:33;;;;;;;4.97;4.47;;;3.80;99.90;;;;;;5071968;28;20467;-52
2021/12/27 11:56:03;;;;;;;5.00;4.20;;;3.80;99.90;;;;;;5096158;22;20530;-55
2021/12/27 11:58:34;;;;;;;5.07;4.57;;;3.80;99.90;;;;;;5070989;28;20449;-56
2021/12/27 12:01:03;;;;;;;5.70;4.93;;;3.70;99.90;;;;;;5082723;28;20448;-56
2021/12/27 12:03:39;;;;;;;9.13;5.93;;;3.60;99.90;;;;;;5072001;28;20525;-56
2021/12/27 12:06:07;;;;;;;7.40;5.27;;;3.40;99.90;;;;;;5087899;28;20508;-56
2021/12/27 12:08:51;;;;;;;4.53;4.03;;;3.20;99.90;;;;;;5110896;28;20515;-56
2021/12/27 12:11:31;;;;;;;3.63;3.33;;;3.30;99.90;;;;;;5097882;28;20441;-57
2021/12/27 12:13:59;;;;;;;6.73;4.47;;;3.40;99.90;;;;;;5086124;28;20492;-56
2021/12/27 12:16:26;;;;;;;5.93;5.33;;;3.30;99.90;;;;;;5103816;28;20469;-56
2021/12/27 12:19:09;;;;;;;4.53;4.23;;;3.30;99.90;;;;;;5100352;28;20458;-56
2021/12/27 12:21:40;;;;;;;3.97;3.43;;;3.40;99.90;;;;;;5095629;28;20780;-57
2021/12/27 12:24:17;;;;;;;5.00;4.50;;;3.40;99.90;;;;;;5105434;28;20453;-56
2021/12/27 12:26:50;;;;;;;4.57;3.20;;;3.50;99.90;;;;;;5097129;28;20560;-57
2021/12/27 12:29:17;;;;;;;6.00;3.90;;;3.50;99.90;;;;;;5090677;28;20556;-57
2021/12/27 12:31:44;;;;;;;11.20;7.40;;;3.50;99.90;;;;;;5089239;28;20976;-56
2021/12/27 12:34:13;;;;;;;25.63;14.97;;;3.60;99.90;;;;;;5091277;28;20467;-57
2021/12/27 12:36:48;;;;;;;7.40;5.80;;;3.60;99.90;;;;;;5089049;28;21039;-57
2021/12/27 12:39:15;;;;;;;5.83;4.10;;;3.70;99.90;;;;;;5104620;28;20475;-56
2021/12/27 12:41:42;;;;;;;3.27;2.97;;;3.80;99.90;;;;;;5103632;28;20468;-57
2021/12/27 12:44:11;;;;;;;3.80;3.50;;;3.80;99.90;;;;;;5096010;28;20493;-57
2021/12/27 12:46:41;;;;;;;3.50;2.80;;;3.80;99.90;;;;;;5104691;28;20500;-57
2021/12/27 12:49:10;;;;;;;4.33;3.70;;;3.70;99.90;;;;;;5096864;28;20533;-57
2021/12/27 12:51:40;;;;;;;5.03;4.53;;;3.80;99.90;;;;;;5095483;28;20522;-56
2021/12/27 12:54:21;;;;;;;4.70;4.30;;;3.80;99.90;;;;;;5099650;28;20452;-56
2021/12/27 12:56:48;;;;;;;4.07;3.67;;;3.80;99.90;;;;;;5092977;28;20499;-56
2021/12/27 12:59:20;;;;;;;3.77;3.47;;;3.80;99.90;;;;;;5088779;28;20473;-56
2021/12/27 13:01:59;;;;;;;3.30;3.00;;;3.80;99.90;;;;;;5104520;28;20480;-56